createdAt,value
2024-03-11T00:00:54.214Z,99659.94
2024-03-11T00:03:21.117Z,99667.03
2024-03-11T00:05:55.327Z,99664.81
2024-03-11T00:08:24.181Z,99654.22
2024-03-11T00:10:56.735Z,99660.16
2024-03-11T00:13:23.795Z,99668.09
2024-03-11T00:15:54.480Z,99663.75
2024-03-11T00:18:26.026Z,99665.13
2024-03-11T00:20:55.250Z,99670.22
2024-03-11T00:23:22.162Z,99666.16
2024-03-11T00:25:50.964Z,99667.47
2024-03-11T00:28:18.912Z,99669.41
2024-03-11T00:30:45.920Z,99664.63
2024-03-11T00:33:14.381Z,99668.75
2024-03-11T00:35:45.322Z,99658.44
2024-03-11T00:38:17.090Z,99654.31
2024-03-11T00:40:44.203Z,99660.75
2024-03-11T00:43:12.224Z,99663.72
2024-03-11T00:45:40.886Z,99667.22
2024-03-11T00:48:12.937Z,99671.34
2024-03-11T00:50:45.165Z,99670.75
2024-03-11T00:53:12.171Z,99675.84
2024-03-11T00:55:40.068Z,99682.16
2024-03-11T00:58:09.534Z,99679.84
2024-03-11T01:00:38.295Z,99669.00
2024-03-11T01:03:10.426Z,99664.34
2024-03-11T01:05:43.413Z,99670.22
2024-03-11T01:08:11.360Z,99668.75
2024-03-11T01:10:42.927Z,99666.03
2024-03-11T01:13:14.637Z,99662.16
2024-03-11T01:15:41.665Z,99670.97
2024-03-11T01:18:08.834Z,99652.72
2024-03-11T01:20:36.147Z,99662.28
2024-03-11T01:23:06.551Z,99657.06
2024-03-11T01:25:38.601Z,99650.94
2024-03-11T01:28:13.151Z,99651.38
2024-03-11T01:30:44.740Z,99648.94
2024-03-11T01:33:20.238Z,99643.69
2024-03-11T01:35:49.835Z,99631.50
2024-03-11T01:38:19.406Z,99635.72
2024-03-11T01:40:47.719Z,99635.19
2024-03-11T01:43:17.409Z,99641.78
2024-03-11T01:45:47.165Z,99639.22
2024-03-11T01:48:14.599Z,99634.78
2024-03-11T01:50:41.896Z,99629.34
2024-03-11T01:53:10.826Z,99632.34
2024-03-11T01:55:39.071Z,99638.38
2024-03-11T01:58:07.918Z,99632.31
2024-03-11T02:00:38.571Z,99618.66
2024-03-11T02:03:08.230Z,99627.09
2024-03-11T02:05:42.099Z,99625.13
2024-03-11T02:08:09.888Z,99629.25
2024-03-11T02:10:37.842Z,99628.66
2024-03-11T02:13:08.247Z,99620.34
2024-03-11T02:15:35.275Z,99615.72
2024-03-11T02:18:02.245Z,99608.47
2024-03-11T02:20:29.955Z,99613.94
2024-03-11T02:23:00.246Z,99612.00
2024-03-11T02:25:29.759Z,99613.41
2024-03-11T02:27:59.612Z,99605.47
2024-03-11T02:30:29.195Z,99610.88
2024-03-11T02:32:59.047Z,99614.63
2024-03-11T02:35:28.616Z,99611.81
2024-03-11T02:37:57.845Z,99612.94
2024-03-11T02:40:32.665Z,99614.53
2024-03-11T02:43:01.141Z,99613.88
2024-03-11T02:45:31.631Z,99618.72
2024-03-11T02:48:01.610Z,99627.63
2024-03-11T02:50:28.997Z,99630.88
2024-03-11T02:53:00.534Z,99618.56
2024-03-11T02:55:31.940Z,99624.53
2024-03-11T02:58:02.158Z,99621.22
2024-03-11T03:00:29.014Z,99624.19
2024-03-11T03:02:56.060Z,99625.09
2024-03-11T03:05:23.492Z,99625.69
2024-03-11T03:07:51.521Z,99611.34
2024-03-11T03:10:18.939Z,99631.75
2024-03-11T03:12:46.285Z,99624.22
2024-03-11T03:15:15.572Z,99620.50
2024-03-11T03:17:42.598Z,99609.63
2024-03-11T03:20:11.874Z,99605.53
2024-03-11T03:22:39.678Z,99609.19
2024-03-11T03:25:07.371Z,99601.66
2024-03-11T03:27:34.540Z,99600.94
2024-03-11T03:30:04.327Z,99606.00
2024-03-11T03:32:31.448Z,99607.91
2024-03-11T03:34:58.463Z,99607.03
2024-03-11T03:37:25.370Z,99602.84
2024-03-11T03:39:54.533Z,99607.03
2024-03-11T03:42:24.491Z,99603.47
2024-03-11T03:44:51.492Z,99605.91
2024-03-11T03:47:23.494Z,99591.31
2024-03-11T03:49:52.700Z,99597.09
2024-03-11T03:52:21.951Z,99596.59
2024-03-11T03:54:48.841Z,99604.00
2024-03-11T03:57:16.716Z,99602.75
2024-03-11T03:59:44.210Z,99604.16
2024-03-11T04:02:11.227Z,99595.16
2024-03-11T04:04:42.517Z,99603.41
2024-03-11T04:07:09.399Z,99592.44
2024-03-11T04:09:36.453Z,99592.16
2024-03-11T04:12:05.037Z,99607.66
2024-03-11T04:14:32.237Z,99597.84
2024-03-11T04:17:04.993Z,99601.84
2024-03-11T04:19:32.317Z,99606.31
2024-03-11T04:21:59.218Z,99596.63
2024-03-11T04:24:28.523Z,99594.97
2024-03-11T04:26:57.036Z,99601.41
2024-03-11T04:29:24.752Z,99598.66
2024-03-11T04:31:54.215Z,99601.38
2024-03-11T04:34:27.642Z,99602.44
2024-03-11T04:36:57.255Z,99596.91
2024-03-11T04:39:29.083Z,99607.03
2024-03-11T04:41:58.303Z,99607.50
2024-03-11T04:44:27.552Z,99609.50
2024-03-11T04:46:57.346Z,99616.81
2024-03-11T04:49:31.514Z,99612.50
2024-03-11T04:51:59.133Z,99608.00
2024-03-11T04:54:27.879Z,99615.25
2024-03-11T04:56:54.859Z,99617.00
2024-03-11T04:59:21.799Z,99607.03
2024-03-11T05:01:48.735Z,99616.19
2024-03-11T05:04:15.712Z,99617.47
2024-03-11T05:06:42.621Z,99618.91
2024-03-11T05:09:11.748Z,99624.25
2024-03-11T05:11:38.702Z,99624.22
2024-03-11T05:14:07.789Z,99628.38
2024-03-11T05:16:41.793Z,99629.84
2024-03-11T05:19:10.993Z,99629.44
2024-03-11T05:21:37.891Z,99625.84
2024-03-11T05:24:05.126Z,99630.31
2024-03-11T05:26:34.862Z,99629.69
2024-03-11T05:29:01.948Z,99630.56
2024-03-11T05:31:32.780Z,99632.25
2024-03-11T05:34:03.317Z,99646.00
2024-03-11T05:36:33.720Z,99653.69
2024-03-11T05:39:01.674Z,99651.38
2024-03-11T05:41:28.715Z,99644.28
2024-03-11T05:43:58.135Z,99647.19
2024-03-11T05:46:25.083Z,99650.31
2024-03-11T05:48:52.544Z,99654.69
2024-03-11T05:51:22.489Z,99643.66
2024-03-11T05:53:53.766Z,99647.06
2024-03-11T05:56:23.636Z,99650.53
2024-03-11T05:58:53.151Z,99656.31
2024-03-11T06:01:21.693Z,99647.50
2024-03-11T06:03:51.286Z,99650.22
2024-03-11T06:06:21.717Z,99648.44
2024-03-11T06:08:48.786Z,99642.91
2024-03-11T06:11:18.057Z,99650.16
2024-03-11T06:13:47.478Z,99644.00
2024-03-11T06:16:14.448Z,99650.81
2024-03-11T06:18:46.019Z,99656.22
2024-03-11T06:21:12.911Z,99647.59
2024-03-11T06:23:39.875Z,99658.09
2024-03-11T06:26:06.870Z,99654.41
2024-03-11T06:28:34.797Z,99662.94
2024-03-11T06:31:01.722Z,99652.91
2024-03-11T06:33:28.756Z,99655.44
2024-03-11T06:35:56.903Z,99647.44
2024-03-11T06:38:24.037Z,99659.38
2024-03-11T06:40:53.350Z,99653.63
2024-03-11T06:43:21.039Z,99659.19
2024-03-11T06:45:51.049Z,99664.75
2024-03-11T06:48:18.043Z,99662.63
2024-03-11T06:50:45.086Z,99666.03
2024-03-11T06:53:12.058Z,99668.09
2024-03-11T06:55:39.807Z,99668.09
2024-03-11T06:58:10.283Z,99664.31
2024-03-11T07:00:37.172Z,99661.94
2024-03-11T07:03:04.476Z,99653.84
2024-03-11T07:05:33.216Z,99655.78
2024-03-11T07:08:07.819Z,99658.88
2024-03-11T07:10:34.961Z,99664.50
2024-03-11T07:13:03.124Z,99672.69
2024-03-11T07:15:30.041Z,99683.19
2024-03-11T07:17:56.973Z,99688.47
2024-03-11T07:20:25.263Z,99687.03
2024-03-11T07:22:55.326Z,99688.03
2024-03-11T07:25:24.771Z,99689.34
2024-03-11T07:27:51.893Z,99694.19
2024-03-11T07:30:23.910Z,99692.41
2024-03-11T07:33:09.080Z,99696.09
2024-03-11T07:35:42.886Z,99691.56
2024-03-11T07:38:11.849Z,99688.22
2024-03-11T07:40:43.529Z,99690.00
2024-03-11T07:43:15.243Z,99708.59
2024-03-11T07:45:42.768Z,99705.31
2024-03-11T07:48:12.158Z,99707.25
2024-03-11T07:50:39.258Z,99708.69
2024-03-11T07:53:06.688Z,99706.47
2024-03-11T07:55:39.169Z,99706.97
2024-03-11T07:58:07.610Z,99722.84
2024-03-11T08:00:40.105Z,99716.34
2024-03-11T08:03:08.418Z,99727.31
2024-03-11T08:05:38.245Z,99725.75
2024-03-11T08:08:05.866Z,99732.06
2024-03-11T08:10:32.822Z,99743.44
2024-03-11T08:12:59.872Z,99748.19
2024-03-11T08:15:27.660Z,99759.38
2024-03-11T08:17:57.715Z,99763.53
2024-03-11T08:20:25.718Z,99766.41
2024-03-11T08:22:58.392Z,99763.97
2024-03-11T08:25:28.978Z,99770.81
2024-03-11T08:27:56.711Z,99766.16
2024-03-11T08:30:28.493Z,99763.78
2024-03-11T08:32:58.064Z,99764.00
2024-03-11T08:35:27.161Z,99763.69
2024-03-11T08:37:54.202Z,99763.47
2024-03-11T08:40:23.173Z,99772.91
2024-03-11T08:42:53.059Z,99772.69
2024-03-11T08:45:23.928Z,99779.66
2024-03-11T08:47:55.423Z,99774.47
2024-03-11T08:50:24.582Z,99780.09
2024-03-11T08:52:53.630Z,99776.78
2024-03-11T08:55:20.771Z,99773.41
2024-03-11T08:57:50.628Z,99768.84
2024-03-11T09:00:19.016Z,99773.19
2024-03-11T09:02:46.694Z,99778.44
2024-03-11T09:05:20.484Z,99783.53
2024-03-11T09:07:48.928Z,99777.97
2024-03-11T09:10:23.745Z,99778.59
2024-03-11T09:12:53.442Z,99782.00
2024-03-11T09:15:25.745Z,99784.50
2024-03-11T09:17:55.665Z,99791.97
2024-03-11T09:20:29.130Z,99795.31
2024-03-11T09:22:57.599Z,99795.31
2024-03-11T09:25:31.741Z,99800.63
2024-03-11T09:28:05.556Z,99804.78
2024-03-11T09:30:39.570Z,99801.38
2024-03-11T09:33:07.525Z,99813.13
2024-03-11T09:35:37.279Z,99810.81
2024-03-11T09:38:07.062Z,99816.59
2024-03-11T09:40:34.040Z,99808.25
2024-03-11T09:43:06.930Z,99806.47
2024-03-11T09:45:36.661Z,99812.72
2024-03-11T09:48:05.475Z,99810.50
2024-03-11T09:50:38.671Z,99804.38
2024-03-11T09:53:19.773Z,99820.19
2024-03-11T09:55:49.465Z,99819.03
2024-03-11T09:58:20.039Z,99816.41
2024-03-11T10:00:53.046Z,99816.13
2024-03-11T10:03:26.674Z,99825.31
2024-03-11T10:06:05.692Z,99835.00
2024-03-11T10:08:36.541Z,99829.34
2024-03-11T10:11:15.913Z,99830.63
2024-03-11T10:13:43.512Z,99836.00
2024-03-11T10:16:20.061Z,99833.94
2024-03-11T10:19:12.776Z,99831.97
2024-03-11T10:21:44.327Z,99840.06
2024-03-11T10:24:11.927Z,99830.72
2024-03-11T10:26:46.983Z,99832.38
2024-03-11T10:29:33.585Z,99837.22
2024-03-11T10:32:01.673Z,99843.59
2024-03-11T10:34:30.309Z,99847.44
2024-03-11T10:37:03.275Z,99852.03
2024-03-11T10:39:42.772Z,99860.31
2024-03-11T10:42:16.318Z,99855.72
2024-03-11T10:44:43.637Z,99860.44
2024-03-11T10:47:18.448Z,99858.22
2024-03-11T10:49:51.599Z,99862.50
2024-03-11T10:52:22.424Z,99864.19
2024-03-11T10:57:48.024Z,99858.88
2024-03-11T11:00:19.334Z,99872.38
2024-03-11T11:03:01.149Z,99869.59
2024-03-11T11:05:34.910Z,99877.78
2024-03-11T11:08:04.072Z,99886.16
2024-03-11T11:10:37.006Z,99893.56
2024-03-11T11:13:06.968Z,99885.44
2024-03-11T11:15:38.770Z,99887.19
2024-03-11T11:18:15.376Z,99887.22
2024-03-11T11:20:49.092Z,99884.75
2024-03-11T11:23:35.829Z,99895.19
2024-03-11T11:26:07.913Z,99888.44
2024-03-11T11:28:40.893Z,99894.66
2024-03-11T11:31:13.509Z,99895.88
2024-03-11T11:34:00.600Z,99903.06
2024-03-11T11:36:34.401Z,99902.22
2024-03-11T11:39:12.575Z,99903.44
2024-03-11T11:41:40.767Z,99905.75
2024-03-11T11:44:08.761Z,99908.13
2024-03-11T11:46:48.530Z,99902.69
2024-03-11T11:49:20.636Z,99906.09
2024-03-11T11:51:52.888Z,99899.38
2024-03-11T11:57:03.679Z,99901.13
2024-03-11T11:59:31.300Z,99905.66
2024-03-11T12:02:01.520Z,99900.31
2024-03-11T12:04:31.911Z,99903.88
2024-03-11T12:06:59.552Z,99898.31
2024-03-11T12:09:27.647Z,99897.13
2024-03-11T12:11:58.295Z,99893.50
2024-03-11T12:14:26.317Z,99896.63
2024-03-11T12:17:09.244Z,99905.44
2024-03-11T12:19:37.436Z,99910.38
2024-03-11T12:22:05.846Z,99905.38
2024-03-11T12:24:33.165Z,99912.16
2024-03-11T12:27:00.352Z,99916.59
2024-03-11T12:29:27.467Z,99919.06
2024-03-11T12:31:58.106Z,99921.84
2024-03-11T12:34:28.599Z,99931.75
2024-03-11T12:36:56.830Z,99926.31
2024-03-11T12:39:27.947Z,99928.41
2024-03-11T12:42:01.699Z,99922.06
2024-03-11T12:44:33.566Z,99926.28
2024-03-11T12:47:02.330Z,99937.63
2024-03-11T12:49:30.155Z,99940.97
2024-03-11T12:52:14.293Z,99942.22
2024-03-11T12:54:41.567Z,99930.25
2024-03-11T12:57:14.902Z,99934.69
2024-03-11T12:59:44.797Z,99947.06
2024-03-11T13:02:22.035Z,99948.72
2024-03-11T13:04:51.240Z,99960.25
2024-03-11T13:07:24.309Z,99961.09
2024-03-11T13:09:55.731Z,99969.06
2024-03-11T13:12:30.221Z,99952.09
2024-03-11T13:14:57.507Z,99949.53
2024-03-11T13:17:24.909Z,99949.50
2024-03-11T13:19:57.715Z,99948.84
2024-03-11T13:22:31.552Z,99958.84
2024-03-11T13:25:06.582Z,99965.91
2024-03-11T13:27:34.582Z,99957.13
2024-03-11T13:30:06.566Z,99958.66
2024-03-11T13:32:37.086Z,99950.97
2024-03-11T13:35:06.065Z,99969.56
2024-03-11T13:37:38.180Z,99980.97
2024-03-11T13:40:09.326Z,99975.19
2024-03-11T13:42:37.832Z,99982.31
2024-03-11T13:45:08.061Z,99977.16
2024-03-11T13:47:35.570Z,99970.63
2024-03-11T13:50:02.514Z,99984.28
2024-03-11T13:52:32.133Z,99982.13
2024-03-11T13:55:00.748Z,99986.50
2024-03-11T13:57:28.235Z,99987.94
2024-03-11T13:59:55.443Z,99991.94
2024-03-11T14:02:25.587Z,100001.53
2024-03-11T14:04:53.943Z,99998.22
2024-03-11T14:07:21.379Z,100001.03
2024-03-11T14:09:50.579Z,100004.41
2024-03-11T14:12:19.776Z,100009.75
2024-03-11T14:14:48.981Z,100013.16
2024-03-11T14:17:21.660Z,100009.41
2024-03-11T14:19:53.767Z,100012.38
2024-03-11T14:22:22.854Z,100023.31
2024-03-11T14:24:49.757Z,100011.91
2024-03-11T14:27:20.192Z,100013.00
2024-03-11T14:29:49.792Z,100019.91
2024-03-11T14:32:17.098Z,100016.53
2024-03-11T14:34:48.043Z,100023.78
2024-03-11T14:37:18.368Z,100013.31
2024-03-11T14:39:45.368Z,100021.94
2024-03-11T14:42:12.573Z,100019.34
2024-03-11T14:44:40.160Z,100023.75
2024-03-11T14:47:09.785Z,100022.09
2024-03-11T14:49:36.667Z,100019.75
2024-03-11T14:52:04.569Z,100022.28
2024-03-11T14:54:32.801Z,100029.03
2024-03-11T14:57:03.223Z,100029.03
2024-03-11T14:59:32.619Z,100029.25
2024-03-11T15:02:03.239Z,100028.19
2024-03-11T15:04:33.642Z,100041.22
2024-03-11T15:07:01.109Z,100045.81
2024-03-11T15:09:31.294Z,100039.53
2024-03-11T15:12:00.275Z,100046.66
2024-03-11T15:14:27.280Z,100041.19
2024-03-11T15:17:01.731Z,100052.53
2024-03-11T15:19:31.167Z,100053.56
2024-03-11T15:21:58.278Z,100056.28
2024-03-11T15:24:35.008Z,100056.69
2024-03-11T15:27:06.160Z,100057.97
2024-03-11T15:29:33.858Z,100067.63
2024-03-11T15:32:00.830Z,100070.13
2024-03-11T15:34:30.053Z,100080.19
2024-03-11T15:36:58.640Z,100080.63
2024-03-11T15:39:33.869Z,100085.66
2024-03-11T15:42:04.683Z,100099.06
2024-03-11T15:44:35.610Z,100091.31
2024-03-11T15:47:06.534Z,100101.59
2024-03-11T15:49:37.523Z,100096.78
2024-03-11T15:52:07.466Z,100104.13
2024-03-11T15:54:37.255Z,100101.22
2024-03-11T15:57:06.760Z,100108.72
2024-03-11T15:59:33.840Z,100096.31
2024-03-11T16:02:00.858Z,100090.53
2024-03-11T16:04:29.828Z,100106.25
2024-03-11T16:06:56.872Z,100103.53
2024-03-11T16:09:52.417Z,100107.94
2024-03-11T16:12:22.174Z,100110.56
2024-03-11T16:14:49.224Z,100114.38
2024-03-11T16:17:22.568Z,100119.44
2024-03-11T16:19:53.515Z,100112.09
2024-03-11T16:22:22.623Z,100120.50
2024-03-11T16:24:52.643Z,100122.59
2024-03-11T16:27:21.898Z,100124.03
2024-03-11T16:29:51.379Z,100126.75
2024-03-11T16:32:20.373Z,100135.63
2024-03-11T16:34:53.061Z,100138.94
2024-03-11T16:37:23.995Z,100148.19
2024-03-11T16:39:51.795Z,100149.06
2024-03-11T16:42:21.046Z,100149.50
2024-03-11T16:44:47.967Z,100154.31
2024-03-11T16:47:17.151Z,100167.06
2024-03-11T16:49:44.244Z,100170.00
2024-03-11T16:52:12.329Z,100172.19
2024-03-11T16:54:41.931Z,100160.25
2024-03-11T16:57:08.925Z,100172.81
2024-03-11T16:59:38.769Z,100181.53
2024-03-11T17:02:08.498Z,100192.25
2024-03-11T17:04:37.715Z,100188.69
2024-03-11T17:07:08.295Z,100190.94
2024-03-11T17:09:41.989Z,100183.16
2024-03-11T17:12:13.600Z,100194.75
2024-03-11T17:14:47.074Z,100197.47
2024-03-11T17:17:14.282Z,100209.09
2024-03-11T17:19:41.458Z,100202.09
2024-03-11T17:22:08.694Z,100213.34
2024-03-11T17:24:42.403Z,100208.78
2024-03-11T17:27:09.476Z,100218.38
2024-03-11T17:29:38.844Z,100220.28
2024-03-11T17:32:08.530Z,100233.50
2024-03-11T17:34:38.292Z,100231.97
2024-03-11T17:37:09.323Z,100225.66
2024-03-11T17:39:38.888Z,100223.38
2024-03-11T17:42:07.023Z,100234.34
2024-03-11T17:44:35.815Z,100244.19
2024-03-11T17:47:06.297Z,100246.03
2024-03-11T17:49:36.655Z,100238.47
2024-03-11T17:52:10.089Z,100243.81
2024-03-11T17:54:40.283Z,100249.19
2024-03-11T17:57:11.194Z,100240.19
2024-03-11T17:59:41.427Z,100248.22
2024-03-11T18:02:08.680Z,100246.47
2024-03-11T18:04:36.898Z,100255.63
2024-03-11T18:07:06.156Z,100250.06
2024-03-11T18:09:33.314Z,100248.44
2024-03-11T18:12:01.409Z,100253.09
2024-03-11T18:14:38.157Z,100254.41
2024-03-11T18:17:14.891Z,100266.19
2024-03-11T18:19:45.777Z,100264.53
2024-03-11T18:22:13.442Z,100266.38
2024-03-11T18:24:40.633Z,100269.22
2024-03-11T18:27:12.629Z,100275.97
2024-03-11T18:29:41.118Z,100276.09
2024-03-11T18:32:13.767Z,100282.19
2024-03-11T18:34:41.024Z,100296.72
2024-03-11T18:37:11.328Z,100295.34
2024-03-11T18:39:47.924Z,100297.75
2024-03-11T18:42:17.216Z,100299.88
2024-03-11T18:44:47.640Z,100307.59
2024-03-11T18:47:17.053Z,100306.81
2024-03-11T18:49:45.403Z,100308.88
2024-03-11T18:52:14.583Z,100313.28
2024-03-11T18:54:43.002Z,100307.38
2024-03-11T18:57:12.971Z,100320.53
2024-03-11T18:59:41.237Z,100330.69
2024-03-11T19:02:10.102Z,100323.75
2024-03-11T19:07:12.994Z,100338.75
2024-03-11T19:09:43.145Z,100342.19
2024-03-11T19:12:10.178Z,100336.84
2024-03-11T19:14:37.269Z,100339.56
2024-03-11T19:17:04.837Z,100334.84
2024-03-11T19:19:34.737Z,100337.19
2024-03-11T19:22:05.483Z,100348.53
2024-03-11T19:24:32.613Z,100356.94
2024-03-11T19:27:03.634Z,100345.88
2024-03-11T19:29:31.090Z,100360.91
2024-03-11T19:31:58.623Z,100347.13
2024-03-11T19:34:28.428Z,100353.06
2024-03-11T19:37:05.930Z,100362.38
2024-03-11T19:40:13.288Z,100362.41
2024-03-11T19:42:58.666Z,100372.00
2024-03-11T19:46:02.555Z,100373.44
2024-03-11T19:49:07.350Z,100364.22
2024-03-11T19:52:25.420Z,100366.13
2024-03-11T19:55:49.122Z,100376.81
2024-03-11T19:59:14.051Z,100378.53
2024-03-11T20:02:15.268Z,100393.28
2024-03-11T20:05:22.253Z,100388.59
2024-03-11T20:08:31.833Z,100391.22
2024-03-11T20:11:43.418Z,100393.94
2024-03-11T20:14:41.416Z,100407.66
2024-03-11T20:17:39.206Z,100402.84
2024-03-11T20:20:51.758Z,100400.19
2024-03-11T20:23:58.363Z,100417.22
2024-03-11T20:26:54.134Z,100414.91
2024-03-11T20:29:47.763Z,100416.31
2024-03-11T20:32:35.447Z,100414.56
2024-03-11T20:35:03.103Z,100422.91
2024-03-11T20:37:31.475Z,100427.59
2024-03-11T20:39:58.664Z,100427.94
2024-03-11T20:42:34.792Z,100432.34
2024-03-11T20:45:02.640Z,100424.00
2024-03-11T20:47:30.397Z,100434.97
2024-03-11T20:49:58.548Z,100429.56
2024-03-11T20:52:27.920Z,100430.03
2024-03-11T20:57:48.721Z,100442.88
2024-03-11T21:00:22.179Z,100442.66
2024-03-11T21:02:52.849Z,100448.13
2024-03-11T21:05:19.790Z,100454.06
2024-03-11T21:07:51.701Z,100470.59
2024-03-11T21:10:19.381Z,100458.19
2024-03-11T21:12:46.332Z,100463.53
2024-03-11T21:15:18.679Z,100461.47
2024-03-11T21:17:50.201Z,100460.38
2024-03-11T21:20:23.894Z,100468.41
2024-03-11T21:23:02.195Z,100473.25
2024-03-11T21:25:43.930Z,100484.13
2024-03-11T21:28:13.023Z,100484.41
2024-03-11T21:30:41.140Z,100491.94
2024-03-11T21:33:10.747Z,100483.56
2024-03-11T21:35:40.993Z,100483.69
2024-03-11T21:38:17.605Z,100485.63
2024-03-11T21:40:51.496Z,100484.41
2024-03-11T21:43:19.203Z,100493.09
2024-03-11T21:45:47.090Z,100494.13
2024-03-11T21:48:16.919Z,100492.97
2024-03-11T21:50:44.074Z,100490.25
2024-03-11T21:53:11.469Z,100501.03
2024-03-11T21:55:48.375Z,100506.41
2024-03-11T21:58:20.140Z,100506.16
2024-03-11T22:00:47.712Z,100499.44
2024-03-11T22:03:19.488Z,100500.75
2024-03-11T22:05:48.814Z,100499.44
2024-03-11T22:08:15.761Z,100496.81
2024-03-11T22:10:45.898Z,100505.63
2024-03-11T22:13:13.910Z,100498.41
2024-03-11T22:15:44.151Z,100504.25
2024-03-11T22:18:16.981Z,100511.06
2024-03-11T22:20:46.980Z,100507.19
2024-03-11T22:23:14.161Z,100504.22
2024-03-11T22:25:45.672Z,100505.22
2024-03-11T22:28:12.751Z,100504.59
2024-03-11T22:30:39.733Z,100506.88
2024-03-11T22:33:07.598Z,100514.31
2024-03-11T22:35:36.640Z,100518.25
2024-03-11T22:38:04.063Z,100503.38
2024-03-11T22:40:32.277Z,100517.34
2024-03-11T22:43:01.540Z,100510.53
2024-03-11T22:45:31.663Z,100513.25
2024-03-11T22:47:59.100Z,100513.78
2024-03-11T22:50:26.147Z,100513.59
2024-03-11T22:52:53.949Z,100511.19
2024-03-11T22:55:25.991Z,100513.97
2024-03-11T22:57:53.119Z,100512.94
2024-03-11T23:00:37.516Z,100518.31
2024-03-11T23:03:12.589Z,100518.00
2024-03-11T23:05:39.486Z,100520.53
2024-03-11T23:08:09.007Z,100533.47
2024-03-11T23:10:41.370Z,100531.31
2024-03-11T23:13:11.911Z,100538.59
2024-03-11T23:15:42.959Z,100544.16
2024-03-11T23:18:17.596Z,100541.44
2024-03-11T23:20:47.770Z,100548.41
2024-03-11T23:23:18.763Z,100546.16
2024-03-11T23:25:50.864Z,100543.44
2024-03-11T23:28:17.796Z,100549.78
2024-03-11T23:30:44.705Z,100546.16
2024-03-11T23:33:14.702Z,100549.16
2024-03-11T23:35:46.560Z,100544.75
2024-03-11T23:38:15.425Z,100546.16
2024-03-11T23:40:42.434Z,100543.72
2024-03-11T23:43:11.668Z,100552.91
2024-03-11T23:45:48.268Z,100547.72
2024-03-11T23:48:20.905Z,100550.53
2024-03-11T23:50:48.379Z,100555.13
2024-03-11T23:53:19.854Z,100559.47
2024-03-11T23:55:49.596Z,100557.44
2024-03-11T23:58:16.511Z,100559.00
